createdAt,value
2019-01-27T00:01:07.451Z,97.17
2019-01-27T00:03:37.636Z,96.72
2019-01-27T00:06:06.715Z,97.31
2019-01-27T00:08:35.793Z,96.78
2019-01-27T00:11:04.851Z,96.91
2019-01-27T00:13:33.891Z,97.52
2019-01-27T00:16:02.971Z,97.54
2019-01-27T00:18:32.046Z,97.17
2019-01-27T00:21:03.346Z,97.48
2019-01-27T00:23:32.395Z,97.08
2019-01-27T00:26:02.566Z,97.75
2019-01-27T00:28:31.632Z,97.63
2019-01-27T00:31:00.710Z,96.83
2019-01-27T00:33:29.825Z,97.08
2019-01-27T00:35:58.883Z,97.28
2019-01-27T00:38:28.009Z,96.93
2019-01-27T00:40:57.086Z,96.64
2019-01-27T00:43:26.133Z,96.67
2019-01-27T00:45:55.217Z,96.85
2019-01-27T00:48:26.292Z,96.24
2019-01-27T00:50:55.435Z,96.89
2019-01-27T00:53:24.815Z,96.80
2019-01-27T00:55:53.856Z,97.29
2019-01-27T00:58:22.940Z,97.27
2019-01-27T01:00:51.992Z,97.17
2019-01-27T01:03:21.154Z,97.38
2019-01-27T01:05:50.176Z,97.42
2019-01-27T01:08:19.254Z,97.44
2019-01-27T01:10:48.302Z,96.67
2019-01-27T01:13:18.404Z,97.21
2019-01-27T01:15:47.497Z,97.67
2019-01-27T01:18:16.672Z,97.92
2019-01-27T01:20:45.796Z,97.92
2019-01-27T01:23:14.887Z,97.81
2019-01-27T01:25:43.944Z,98.15
2019-01-27T01:28:13.052Z,97.35
2019-01-27T01:30:42.145Z,96.99
2019-01-27T01:33:13.221Z,96.82
2019-01-27T01:35:42.426Z,96.76
2019-01-27T01:38:11.479Z,97.01
2019-01-27T01:40:40.575Z,97.14
2019-01-27T01:43:09.667Z,96.18
2019-01-27T01:45:38.754Z,96.83
2019-01-27T01:48:07.890Z,96.51
2019-01-27T01:50:36.954Z,96.30
2019-01-27T01:53:08.431Z,96.20
2019-01-27T01:55:37.681Z,96.54
2019-01-27T01:58:06.902Z,96.86
2019-01-27T02:00:36.018Z,96.09
2019-01-27T02:03:05.216Z,96.38
2019-01-27T02:05:35.440Z,95.82
2019-01-27T02:08:04.640Z,96.32
2019-01-27T02:10:33.717Z,96.32
2019-01-27T02:13:03.005Z,96.48
2019-01-27T02:16:01.249Z,96.66
2019-01-27T02:18:31.272Z,96.83
2019-01-27T02:21:02.625Z,97.28
2019-01-27T02:23:31.806Z,97.66
2019-01-27T02:26:02.795Z,97.79
2019-01-27T02:28:32.035Z,97.25
2019-01-27T02:31:03.562Z,97.34
2019-01-27T02:33:33.332Z,98.84
2019-01-27T02:36:05.389Z,98.82
2019-01-27T02:38:34.463Z,98.65
2019-01-27T02:41:05.063Z,97.95
2019-01-27T02:43:34.415Z,98.10
2019-01-27T02:46:04.333Z,98.39
2019-01-27T02:48:33.442Z,97.79
2019-01-27T02:51:02.924Z,98.46
2019-01-27T02:53:32.590Z,98.54
2019-01-27T02:56:01.731Z,98.40
2019-01-27T02:58:30.793Z,98.36
2019-01-27T03:00:59.931Z,98.40
2019-01-27T03:03:28.981Z,98.60
2019-01-27T03:06:13.827Z,98.84
2019-01-27T03:09:07.941Z,98.86
2019-01-27T03:11:49.971Z,98.39
2019-01-27T03:14:20.212Z,98.51
2019-01-27T03:16:50.442Z,98.57
2019-01-27T03:19:21.022Z,98.53
2019-01-27T03:21:50.152Z,97.79
2019-01-27T03:24:19.283Z,98.26
2019-01-27T03:26:48.403Z,98.40
2019-01-27T03:29:17.437Z,98.58
2019-01-27T03:31:48.545Z,97.83
2019-01-27T03:34:17.533Z,97.75
2019-01-27T03:36:47.564Z,97.72
2019-01-27T03:39:16.644Z,97.81
2019-01-27T03:41:45.762Z,98.09
2019-01-27T03:44:14.832Z,97.73
2019-01-27T03:46:43.898Z,98.33
2019-01-27T03:49:13.012Z,97.66
2019-01-27T03:51:42.924Z,97.43
2019-01-27T03:54:13.814Z,97.75
2019-01-27T03:56:44.741Z,97.37
2019-01-27T03:59:13.756Z,97.52
2019-01-27T04:01:42.911Z,97.85
2019-01-27T04:04:12.013Z,97.29
2019-01-27T04:06:41.594Z,97.54
2019-01-27T04:09:12.580Z,97.64
2019-01-27T04:11:41.657Z,97.87
2019-01-27T04:14:10.686Z,97.91
2019-01-27T04:16:39.817Z,97.73
2019-01-27T04:19:08.873Z,98.22
2019-01-27T04:21:37.930Z,98.62
2019-01-27T04:24:07.001Z,98.13
2019-01-27T04:26:36.098Z,97.09
2019-01-27T04:29:05.423Z,97.42
2019-01-27T04:31:36.740Z,97.73
2019-01-27T04:34:05.950Z,97.96
2019-01-27T04:36:34.988Z,98.37
2019-01-27T04:39:05.973Z,98.83
2019-01-27T04:41:35.019Z,98.79
2019-01-27T04:44:04.094Z,98.49
2019-01-27T04:46:33.144Z,98.81
2019-01-27T04:49:02.235Z,98.97
2019-01-27T04:51:31.310Z,98.94
2019-01-27T04:54:00.497Z,99.11
2019-01-27T04:56:29.565Z,98.71
2019-01-27T04:58:58.618Z,98.82
2019-01-27T05:01:27.621Z,98.24
2019-01-27T05:04:09.347Z,98.22
2019-01-27T05:06:38.361Z,98.56
2019-01-27T05:09:10.165Z,98.40
2019-01-27T05:11:39.253Z,98.54
2019-01-27T05:14:09.488Z,98.32
2019-01-27T05:16:38.508Z,98.47
2019-01-27T05:19:07.591Z,98.27
2019-01-27T05:21:36.658Z,98.44
2019-01-27T05:24:05.761Z,97.92
2019-01-27T05:26:34.801Z,97.61
2019-01-27T05:29:03.869Z,97.88
2019-01-27T05:31:32.919Z,98.04
2019-01-27T05:34:02.064Z,98.05
2019-01-27T05:36:35.453Z,98.35
2019-01-27T05:39:06.790Z,97.62
2019-01-27T05:41:36.982Z,97.20
2019-01-27T05:44:06.130Z,98.24
2019-01-27T05:46:36.408Z,98.11
2019-01-27T05:49:05.463Z,98.66
2019-01-27T05:51:34.484Z,99.40
2019-01-27T05:54:03.562Z,98.57
2019-01-27T05:56:32.603Z,98.60
2019-01-27T05:59:03.310Z,98.63
2019-01-27T06:01:32.357Z,98.19
2019-01-27T06:04:03.437Z,97.89
2019-01-27T06:06:32.624Z,97.71
2019-01-27T06:09:01.762Z,97.52
2019-01-27T06:11:33.148Z,98.49
2019-01-27T06:14:03.291Z,98.01
2019-01-27T06:16:34.626Z,98.49
2019-01-27T06:19:03.995Z,98.11
2019-01-27T06:21:34.307Z,98.26
2019-01-27T06:24:03.329Z,99.29
2019-01-27T06:26:32.402Z,99.64
2019-01-27T06:29:01.411Z,99.18
2019-01-27T06:31:30.490Z,99.53
2019-01-27T06:34:11.504Z,99.56
2019-01-27T06:36:40.575Z,99.42
2019-01-27T06:39:10.502Z,99.93
2019-01-27T06:41:40.577Z,99.84
2019-01-27T06:44:11.121Z,99.93
2019-01-27T06:46:44.566Z,99.50
2019-01-27T06:49:13.613Z,99.74
2019-01-27T06:51:43.034Z,99.88
2019-01-27T06:54:13.099Z,99.85
2019-01-27T06:56:45.122Z,99.52
2019-01-27T06:59:30.915Z,99.82
2019-01-27T07:02:29.544Z,99.31
2019-01-27T07:05:07.075Z,98.96
2019-01-27T07:07:55.043Z,98.99
2019-01-27T07:10:46.064Z,99.38
2019-01-27T07:13:45.921Z,99.37
2019-01-27T07:16:43.225Z,98.90
2019-01-27T07:19:31.198Z,98.54
2019-01-27T07:22:34.611Z,98.14
2019-01-27T07:25:23.691Z,98.75
2019-01-27T07:28:08.798Z,98.14
2019-01-27T07:30:57.863Z,98.52
2019-01-27T07:33:44.462Z,98.96
2019-01-27T07:36:44.545Z,98.64
2019-01-27T07:39:25.347Z,98.56
2019-01-27T07:42:12.312Z,98.87
2019-01-27T07:45:06.381Z,98.19
2019-01-27T07:47:44.884Z,98.37
2019-01-27T07:50:33.471Z,98.24
2019-01-27T07:53:18.882Z,97.61
2019-01-27T07:56:03.471Z,97.05
2019-01-27T07:58:41.243Z,97.58
2019-01-27T08:01:26.735Z,97.54
2019-01-27T08:04:29.995Z,97.48
2019-01-27T08:07:25.593Z,97.59
2019-01-27T08:10:16.573Z,97.42
2019-01-27T08:13:07.620Z,96.27
2019-01-27T08:16:01.259Z,97.21
2019-01-27T08:18:58.465Z,97.44
2019-01-27T08:21:55.585Z,96.97
2019-01-27T08:24:52.716Z,97.69
2019-01-27T08:27:39.339Z,97.79
2019-01-27T08:30:30.167Z,97.52
2019-01-27T08:33:16.017Z,97.09
2019-01-27T08:36:22.772Z,97.50
2019-01-27T08:39:08.647Z,97.73
2019-01-27T08:42:14.841Z,97.49
2019-01-27T08:45:02.877Z,97.84
2019-01-27T08:47:35.173Z,98.34
2019-01-27T08:50:05.003Z,96.60
2019-01-27T08:52:34.081Z,96.65
2019-01-27T08:55:03.196Z,96.34
2019-01-27T08:57:32.609Z,96.74
2019-01-27T09:00:01.708Z,97.12
2019-01-27T09:02:53.318Z,96.57
2019-01-27T09:05:32.241Z,95.28
2019-01-27T09:08:26.166Z,95.97
2019-01-27T09:11:14.144Z,96.36
2019-01-27T09:13:53.208Z,96.74
2019-01-27T09:16:40.113Z,96.59
2019-01-27T09:19:27.245Z,95.96
2019-01-27T09:22:24.355Z,95.93
2019-01-27T09:25:24.725Z,96.51
2019-01-27T09:28:10.035Z,95.41
2019-01-27T09:30:47.407Z,95.30
2019-01-27T09:33:35.349Z,94.85
2019-01-27T09:36:23.123Z,94.36
2019-01-27T09:39:11.249Z,94.45
2019-01-27T09:41:51.299Z,93.43
2019-01-27T09:44:54.292Z,93.02
2019-01-27T09:47:45.334Z,92.28
2019-01-27T09:50:33.329Z,93.20
2019-01-27T09:53:13.940Z,92.34
2019-01-27T09:56:01.157Z,93.37
2019-01-27T09:58:53.960Z,94.31
2019-01-27T10:01:31.287Z,94.43
2019-01-27T10:04:10.558Z,92.98
2019-01-27T10:06:58.638Z,94.13
2019-01-27T10:09:52.572Z,92.86
2019-01-27T10:12:42.912Z,92.48
2019-01-27T10:15:22.941Z,92.80
2019-01-27T10:18:00.598Z,91.93
2019-01-27T10:20:48.608Z,91.98
2019-01-27T10:23:23.456Z,90.14
2019-01-27T10:26:04.915Z,89.30
2019-01-27T10:29:13.021Z,90.40
2019-01-27T10:32:04.046Z,91.80
2019-01-27T10:34:39.696Z,91.55
2019-01-27T10:37:27.927Z,90.50
2019-01-27T10:40:09.309Z,90.95
2019-01-27T10:43:04.082Z,89.13
2019-01-27T10:45:47.486Z,90.77
2019-01-27T10:48:35.931Z,89.74
2019-01-27T10:51:30.317Z,90.21
2019-01-27T10:54:28.705Z,89.54
2019-01-27T10:57:03.260Z,90.57
2019-01-27T10:59:42.869Z,90.90
2019-01-27T11:02:37.093Z,91.61
2019-01-27T11:05:39.905Z,92.84
2019-01-27T11:08:43.210Z,91.39
2019-01-27T11:11:25.431Z,91.14
2019-01-27T11:14:28.741Z,91.04
2019-01-27T11:17:11.484Z,91.16
2019-01-27T11:20:05.617Z,91.76
2019-01-27T11:22:59.874Z,91.55
2019-01-27T11:25:43.966Z,93.23
2019-01-27T11:28:41.135Z,92.44
2019-01-27T11:31:47.099Z,92.60
2019-01-27T11:34:30.215Z,92.16
2019-01-27T11:37:21.528Z,93.54
2019-01-27T11:40:15.909Z,92.68
2019-01-27T11:42:54.318Z,92.45
2019-01-27T11:45:32.582Z,92.79
2019-01-27T11:48:31.351Z,93.10
2019-01-27T11:51:20.630Z,93.32
2019-01-27T11:53:49.822Z,91.99
2019-01-27T11:56:19.407Z,91.62
2019-01-27T11:58:48.502Z,92.21
2019-01-27T12:01:18.795Z,92.03
2019-01-27T12:03:50.240Z,90.91
2019-01-27T12:06:23.722Z,90.24
2019-01-27T12:08:52.965Z,92.98
2019-01-27T12:11:26.261Z,92.31
2019-01-27T12:13:55.375Z,93.35
2019-01-27T12:16:26.712Z,93.08
2019-01-27T12:18:55.897Z,92.79
2019-01-27T12:21:26.185Z,93.88
2019-01-27T12:23:55.321Z,93.92
2019-01-27T12:26:24.502Z,93.25
2019-01-27T12:28:54.887Z,93.47
2019-01-27T12:31:26.047Z,93.84
2019-01-27T12:33:58.712Z,93.62
2019-01-27T12:36:31.399Z,93.52
2019-01-27T12:39:00.760Z,93.57
2019-01-27T12:41:31.616Z,92.80
2019-01-27T12:44:01.335Z,92.94
2019-01-27T12:46:35.880Z,91.35
2019-01-27T12:49:05.166Z,91.97
2019-01-27T12:51:34.243Z,91.57
2019-01-27T12:54:04.664Z,90.98
2019-01-27T12:56:35.100Z,91.78
2019-01-27T12:59:04.214Z,93.43
2019-01-27T13:01:35.573Z,92.22
2019-01-27T13:04:04.741Z,92.04
2019-01-27T13:06:34.980Z,92.89
2019-01-27T13:09:05.975Z,92.83
2019-01-27T13:11:36.259Z,93.48
2019-01-27T13:14:05.406Z,92.36
2019-01-27T13:16:35.635Z,92.56
2019-01-27T13:19:04.721Z,94.10
2019-01-27T13:21:33.808Z,93.07
2019-01-27T13:24:03.102Z,92.79
2019-01-27T13:26:33.436Z,92.33
2019-01-27T13:29:04.858Z,91.88
2019-01-27T13:31:33.936Z,92.16
2019-01-27T13:34:03.053Z,92.50
2019-01-27T13:36:32.171Z,93.14
2019-01-27T13:39:01.704Z,92.29
2019-01-27T13:41:30.780Z,92.99
2019-01-27T13:44:02.096Z,93.28
2019-01-27T13:46:31.129Z,93.96
2019-01-27T13:49:02.302Z,93.93
2019-01-27T13:51:31.382Z,93.07
2019-01-27T13:54:00.962Z,94.08
2019-01-27T13:56:30.072Z,93.53
2019-01-27T13:58:59.195Z,94.57
2019-01-27T14:01:28.305Z,94.38
2019-01-27T14:03:57.392Z,95.03
2019-01-27T14:06:26.605Z,93.97
2019-01-27T14:08:55.690Z,93.10
2019-01-27T14:11:24.795Z,92.67
2019-01-27T14:13:53.825Z,93.10
2019-01-27T14:16:23.044Z,93.71
2019-01-27T14:18:52.289Z,93.37
2019-01-27T14:21:22.852Z,94.45
2019-01-27T14:23:51.987Z,94.68
2019-01-27T14:26:21.637Z,94.26
2019-01-27T14:28:50.695Z,92.95
2019-01-27T14:31:21.348Z,93.28
2019-01-27T14:33:52.765Z,94.16
2019-01-27T14:36:21.969Z,94.29
2019-01-27T14:38:51.055Z,94.43
2019-01-27T14:41:21.545Z,94.10
2019-01-27T14:43:50.702Z,93.52
2019-01-27T14:46:19.749Z,94.31
2019-01-27T14:48:48.963Z,94.17
2019-01-27T14:51:18.135Z,94.48
2019-01-27T14:53:47.304Z,94.58
2019-01-27T14:56:16.462Z,94.43
2019-01-27T14:58:45.503Z,94.63
2019-01-27T15:01:14.587Z,94.60
2019-01-27T15:03:43.810Z,94.81
2019-01-27T15:06:12.932Z,94.87
2019-01-27T15:08:45.909Z,95.07
2019-01-27T15:11:13.204Z,94.92
2019-01-27T15:13:42.365Z,94.86
2019-01-27T15:16:11.482Z,93.48
2019-01-27T15:18:42.683Z,94.61
2019-01-27T15:21:19.962Z,93.57
2019-01-27T15:23:49.076Z,93.83
2019-01-27T15:26:18.210Z,94.33
2019-01-27T15:28:47.346Z,94.83
2019-01-27T15:31:17.660Z,94.96
2019-01-27T15:33:46.797Z,94.73
2019-01-27T15:36:16.002Z,93.28
2019-01-27T15:38:46.261Z,92.63
2019-01-27T15:41:15.352Z,93.96
2019-01-27T15:43:48.790Z,94.48
2019-01-27T15:46:21.507Z,94.69
2019-01-27T15:48:53.026Z,95.33
2019-01-27T15:51:24.378Z,94.40
2019-01-27T15:53:53.592Z,94.54
2019-01-27T15:56:24.286Z,95.11
2019-01-27T15:58:53.401Z,94.76
2019-01-27T16:01:22.868Z,94.65
2019-01-27T16:03:53.096Z,95.33
2019-01-27T16:06:24.202Z,95.55
2019-01-27T16:08:53.278Z,96.29
2019-01-27T16:11:22.392Z,96.00
2019-01-27T16:13:51.557Z,96.33
2019-01-27T16:16:20.686Z,96.16
2019-01-27T16:18:49.802Z,96.07
2019-01-27T16:21:21.073Z,95.55
2019-01-27T16:23:53.173Z,96.05
2019-01-27T16:26:23.237Z,95.19
2019-01-27T16:28:52.308Z,94.59
2019-01-27T16:31:38.885Z,95.48
2019-01-27T16:34:32.902Z,94.91
2019-01-27T16:37:02.202Z,95.93
2019-01-27T16:39:31.358Z,96.55
2019-01-27T16:42:00.513Z,96.81
2019-01-27T16:44:30.865Z,97.39
2019-01-27T16:46:59.951Z,97.23
2019-01-27T16:49:29.030Z,98.10
2019-01-27T16:51:58.113Z,98.45
2019-01-27T16:54:27.220Z,98.38
2019-01-27T16:56:56.282Z,98.86
2019-01-27T16:59:25.396Z,99.15
2019-01-27T17:01:59.077Z,99.33
2019-01-27T17:04:28.534Z,99.52
2019-01-27T17:06:57.612Z,100.00
2019-01-27T17:09:26.765Z,99.88
2019-01-27T17:11:55.868Z,100.00
2019-01-27T17:14:24.965Z,99.70
2019-01-27T17:16:54.022Z,99.48
2019-01-27T17:19:25.522Z,98.67
2019-01-27T17:21:54.644Z,97.82
2019-01-27T17:24:25.667Z,97.61
2019-01-27T17:26:56.046Z,97.34
2019-01-27T17:29:25.345Z,97.24
2019-01-27T17:31:54.706Z,97.50
2019-01-27T17:34:23.805Z,97.07
2019-01-27T17:36:52.944Z,97.49
2019-01-27T17:39:24.973Z,98.02
2019-01-27T17:41:54.093Z,98.68
2019-01-27T17:44:26.293Z,97.80
2019-01-27T17:46:55.391Z,97.66
2019-01-27T17:49:24.430Z,98.26
2019-01-27T17:51:55.758Z,96.53
2019-01-27T17:54:25.180Z,96.08
2019-01-27T17:57:12.333Z,96.42
2019-01-27T17:59:50.470Z,95.34
2019-01-27T18:02:36.966Z,96.98
2019-01-27T18:05:34.182Z,96.83
2019-01-27T18:08:07.746Z,96.87
2019-01-27T18:10:54.625Z,95.60
2019-01-27T18:13:44.819Z,95.64
2019-01-27T18:16:14.312Z,92.43
2019-01-27T18:18:46.048Z,93.19
2019-01-27T18:21:15.115Z,93.27
2019-01-27T18:23:45.286Z,92.13
2019-01-27T18:26:14.420Z,90.58
2019-01-27T18:28:43.573Z,91.37
2019-01-27T18:31:12.685Z,90.45
2019-01-27T18:33:44.032Z,90.48
2019-01-27T18:36:13.143Z,91.74
2019-01-27T18:38:42.241Z,92.46
2019-01-27T18:41:11.279Z,91.98
2019-01-27T18:43:40.389Z,91.35
2019-01-27T18:46:09.435Z,91.61
2019-01-27T18:48:38.472Z,91.02
2019-01-27T18:51:09.547Z,91.08
2019-01-27T18:54:02.394Z,91.27
2019-01-27T18:56:40.769Z,90.88
2019-01-27T18:59:28.741Z,89.87
2019-01-27T19:02:07.125Z,89.18
2019-01-27T19:04:53.765Z,89.37
2019-01-27T19:07:40.574Z,88.54
2019-01-27T19:10:35.882Z,89.33
2019-01-27T19:13:33.416Z,89.90
2019-01-27T19:16:30.746Z,89.88
2019-01-27T19:19:18.759Z,89.83
2019-01-27T19:22:25.590Z,90.46
2019-01-27T19:25:12.921Z,91.29
2019-01-27T19:28:13.693Z,91.34
2019-01-27T19:30:53.906Z,91.21
2019-01-27T19:34:02.472Z,91.61
2019-01-27T19:36:59.357Z,91.69
2019-01-27T19:39:46.072Z,91.27
2019-01-27T19:42:32.526Z,91.69
2019-01-27T19:45:16.672Z,91.33
2019-01-27T19:47:57.440Z,91.12
2019-01-27T19:50:44.395Z,91.48
2019-01-27T19:53:29.401Z,90.88
2019-01-27T19:56:13.291Z,89.94
2019-01-27T19:58:55.739Z,91.13
2019-01-27T20:02:01.953Z,89.72
2019-01-27T20:04:44.152Z,91.02
2019-01-27T20:07:32.139Z,91.21
2019-01-27T20:10:21.745Z,90.55
2019-01-27T20:13:13.160Z,90.43
2019-01-27T20:16:04.366Z,91.09
2019-01-27T20:18:55.184Z,90.62
2019-01-27T20:21:53.650Z,91.29
2019-01-27T20:24:40.490Z,91.33
2019-01-27T20:27:18.484Z,91.75
2019-01-27T20:30:09.888Z,92.10
2019-01-27T20:32:52.289Z,92.46
2019-01-27T20:35:40.835Z,91.87
2019-01-27T20:38:28.813Z,92.42
2019-01-27T20:41:19.815Z,93.03
2019-01-27T20:44:08.902Z,93.05
2019-01-27T20:46:50.453Z,93.23
2019-01-27T20:49:44.307Z,93.50
2019-01-27T20:52:24.876Z,94.13
2019-01-27T20:55:21.638Z,93.44
2019-01-27T20:58:25.019Z,93.72
2019-01-27T21:01:23.142Z,93.70
2019-01-27T21:04:11.114Z,93.18
2019-01-27T21:07:07.055Z,93.50
2019-01-27T21:09:54.039Z,94.08
2019-01-27T21:12:46.774Z,93.27
2019-01-27T21:15:55.055Z,93.33
2019-01-27T21:18:36.033Z,92.75
2019-01-27T21:21:05.088Z,93.02
2019-01-27T21:23:34.129Z,93.08
2019-01-27T21:26:04.464Z,92.84
2019-01-27T21:28:33.523Z,92.62
2019-01-27T21:31:02.746Z,92.49
2019-01-27T21:33:31.788Z,92.27
2019-01-27T21:36:04.436Z,92.55
2019-01-27T21:38:33.548Z,92.18
2019-01-27T21:41:04.864Z,92.45
2019-01-27T21:43:33.910Z,92.81
2019-01-27T21:46:03.050Z,92.57
2019-01-27T21:48:32.104Z,92.68
2019-01-27T21:51:01.170Z,92.81
2019-01-27T21:53:30.247Z,92.67
2019-01-27T21:55:59.325Z,92.46
2019-01-27T21:58:28.437Z,92.34
2019-01-27T22:00:57.504Z,92.58
2019-01-27T22:03:28.360Z,92.58
2019-01-27T22:05:57.428Z,92.45
2019-01-27T22:08:26.503Z,92.94
2019-01-27T22:10:55.512Z,92.92
2019-01-27T22:13:24.645Z,93.77
2019-01-27T22:15:53.689Z,93.94
2019-01-27T22:18:22.889Z,94.61
2019-01-27T22:20:51.949Z,94.80
2019-01-27T22:23:21.064Z,94.65
2019-01-27T22:25:50.145Z,95.37
2019-01-27T22:28:19.203Z,94.70
2019-01-27T22:30:48.310Z,93.78
2019-01-27T22:33:17.556Z,93.27
2019-01-27T22:35:48.640Z,93.00
2019-01-27T22:38:17.686Z,93.77
2019-01-27T22:40:46.710Z,93.69
2019-01-27T22:43:15.915Z,94.04
2019-01-27T22:45:45.046Z,93.12
2019-01-27T22:48:14.102Z,93.17
2019-01-27T22:50:43.260Z,94.11
2019-01-27T22:53:12.343Z,95.14
2019-01-27T22:55:41.584Z,95.54
2019-01-27T22:58:14.534Z,93.92
2019-01-27T23:00:59.016Z,94.38
2019-01-27T23:03:29.167Z,93.95
2019-01-27T23:05:59.548Z,93.96
2019-01-27T23:08:29.391Z,94.30
2019-01-27T23:10:58.427Z,93.90
2019-01-27T23:13:27.444Z,93.67
2019-01-27T23:15:56.677Z,93.77
2019-01-27T23:18:25.797Z,92.84
2019-01-27T23:20:55.000Z,93.04
2019-01-27T23:23:24.090Z,92.64
2019-01-27T23:25:55.582Z,92.87
2019-01-27T23:28:25.157Z,92.98
2019-01-27T23:30:54.217Z,92.64
2019-01-27T23:33:24.389Z,92.32
2019-01-27T23:35:53.658Z,92.71
2019-01-27T23:38:24.055Z,92.44
2019-01-27T23:40:55.223Z,91.65
2019-01-27T23:43:24.363Z,91.62
2019-01-27T23:45:53.571Z,91.96
2019-01-27T23:48:25.902Z,91.92
2019-01-27T23:50:54.950Z,91.67
2019-01-27T23:53:23.979Z,91.56
2019-01-27T23:55:53.094Z,91.15
2019-01-27T23:58:22.211Z,90.76
